Time;durP1;ratioP1;P1;durP2;ratioP2;P2;SDS_P1;SDS_P2;PMS_P1;PMS_P2;Temp;Humidity;BMP_temperature;BMP_pressure;BME280_temperature;BME280_humidity;BME280_pressure;Samples;Min_cycle;Max_cycle;Signal;HPM_P1;HPM_P2
2023/05/12 00:01:59;;;;;;;5.53;4.78;;;16.40;98.70;;;;;;5011555;28;20026;-52
2023/05/12 00:04:45;;;;;;;8.93;5.20;;;16.40;98.70;;;;;;5012590;28;20037;-52
2023/05/12 00:07:31;;;;;;;7.55;4.88;;;16.40;98.50;;;;;;5012446;28;20092;-48
2023/05/12 00:10:17;;;;;;;6.13;4.65;;;16.40;98.50;;;;;;5012716;28;20085;-51
2023/05/12 00:13:03;;;;;;;5.32;4.75;;;16.40;98.80;;;;;;5012105;28;20030;-46
2023/05/12 00:15:50;;;;;;;6.88;5.97;;;16.40;99.00;;;;;;5011057;28;20129;-48
2023/05/12 00:18:36;;;;;;;6.50;5.80;;;16.40;98.80;;;;;;5011302;28;20101;-50
2023/05/12 00:21:22;;;;;;;6.97;5.70;;;16.40;99.10;;;;;;5003209;28;20018;-47
2023/05/12 00:24:08;;;;;;;8.63;5.55;;;16.30;99.20;;;;;;5012441;28;20026;-47
2023/05/12 00:26:54;;;;;;;6.10;5.20;;;16.30;99.40;;;;;;5011452;28;20029;-47
2023/05/12 00:29:39;;;;;;;6.40;5.43;;;16.30;99.70;;;;;;5011506;28;20021;-49
2023/05/12 00:32:26;;;;;;;6.85;5.38;;;16.30;99.90;;;;;;5010846;28;20464;-52
2023/05/12 00:35:12;;;;;;;8.25;5.40;;;16.30;99.90;;;;;;5011326;28;20026;-49
2023/05/12 00:37:58;;;;;;;11.63;6.18;;;16.30;99.70;;;;;;5010654;28;20022;-50
2023/05/12 00:40:43;;;;;;;8.02;6.13;;;16.20;99.60;;;;;;5011321;28;20048;-51
2023/05/12 00:43:30;;;;;;;7.60;5.47;;;16.20;99.70;;;;;;5012599;28;20160;-47
2023/05/12 00:46:17;;;;;;;6.22;5.63;;;16.20;99.60;;;;;;5016748;28;20116;-48
2023/05/12 00:49:03;;;;;;;8.57;5.95;;;16.20;99.60;;;;;;5016901;28;20026;-47
2023/05/12 00:51:49;;;;;;;6.47;5.88;;;16.20;99.60;;;;;;5023237;28;20080;-46
2023/05/12 00:54:36;;;;;;;6.07;5.47;;;16.20;99.60;;;;;;5024834;28;20084;-47
2023/05/12 00:57:25;;;;;;;8.52;5.95;;;16.20;99.90;;;;;;5019590;28;20112;-52
2023/05/12 01:00:11;;;;;;;6.25;5.28;;;16.20;99.90;;;;;;5018706;28;20085;-47
2023/05/12 01:02:57;;;;;;;6.95;5.68;;;16.20;99.90;;;;;;5016292;28;20026;-47
2023/05/12 01:05:46;;;;;;;9.05;6.32;;;16.20;99.90;;;;;;5016229;28;20053;-49
2023/05/12 01:08:33;;;;;;;8.30;6.38;;;16.20;99.90;;;;;;5014744;28;20033;-50
2023/05/12 01:11:19;;;;;;;7.65;6.00;;;16.10;99.90;;;;;;5015595;28;20038;-48
2023/05/12 01:14:05;;;;;;;9.05;6.47;;;16.10;99.90;;;;;;5004575;28;20113;-51
2023/05/12 01:16:52;;;;;;;7.43;6.38;;;16.10;99.90;;;;;;5014520;28;20036;-48
2023/05/12 01:19:57;;;;;;;10.13;6.32;;;16.00;99.90;;;;;;5015106;28;20037;-50
2023/05/12 01:22:45;;;;;;;7.57;5.60;;;16.00;99.90;;;;;;5014842;28;20022;-51
2023/05/12 01:25:32;;;;;;;7.28;6.28;;;16.00;99.90;;;;;;5013595;28;20269;-49
2023/05/12 01:28:20;;;;;;;9.50;6.10;;;15.90;99.90;;;;;;5009627;28;20022;-49
2023/05/12 01:31:08;;;;;;;8.75;6.07;;;15.90;99.90;;;;;;4996623;28;20825;-50
2023/05/12 01:33:54;;;;;;;7.85;6.03;;;15.90;99.90;;;;;;4994445;28;20034;-50
2023/05/12 01:36:40;;;;;;;8.25;6.63;;;15.80;99.90;;;;;;4995170;28;20118;-50
2023/05/12 01:39:25;;;;;;;13.35;6.55;;;15.60;99.90;;;;;;5011881;28;20030;-55
2023/05/12 01:42:12;;;;;;;7.03;6.32;;;15.50;99.90;;;;;;5015818;28;20029;-50
2023/05/12 01:44:58;;;;;;;7.43;6.10;;;15.60;99.90;;;;;;5013902;28;20109;-49
2023/05/12 01:47:44;;;;;;;6.80;6.10;;;15.70;99.90;;;;;;5013347;28;20105;-51
2023/05/12 01:50:30;;;;;;;6.72;6.03;;;15.70;99.90;;;;;;5015224;28;20505;-51
2023/05/12 01:53:25;;;;;;;8.02;6.20;;;15.80;99.90;;;;;;5015221;28;20116;-52
2023/05/12 01:56:10;;;;;;;7.25;6.50;;;15.70;99.90;;;;;;5013473;28;20533;-49
2023/05/12 01:58:56;;;;;;;7.13;6.28;;;15.80;99.90;;;;;;5014713;28;20037;-50
2023/05/12 02:01:43;;;;;;;7.63;6.93;;;15.70;99.90;;;;;;5014903;28;20026;-52
2023/05/12 02:04:29;;;;;;;8.85;6.43;;;15.70;99.90;;;;;;5014169;28;20022;-50
2023/05/12 02:07:15;;;;;;;7.88;7.00;;;15.60;99.90;;;;;;5014521;28;20018;-49
2023/05/12 02:10:01;;;;;;;9.07;6.88;;;15.50;99.90;;;;;;5014727;28;20030;-49
2023/05/12 02:12:47;;;;;;;8.65;6.78;;;15.50;99.90;;;;;;5014162;28;20037;-49
2023/05/12 02:15:33;;;;;;;7.97;6.90;;;15.50;99.90;;;;;;5015038;28;20138;-48
2023/05/12 02:18:19;;;;;;;7.65;6.72;;;15.50;99.90;;;;;;5013196;28;20026;-50
2023/05/12 02:21:05;;;;;;;7.45;6.50;;;15.50;99.90;;;;;;5005961;28;20018;-49
2023/05/12 02:23:51;;;;;;;7.95;6.50;;;15.50;99.90;;;;;;5014031;28;20558;-48
2023/05/12 02:26:37;;;;;;;7.45;6.75;;;15.50;99.90;;;;;;5013480;28;20061;-49
2023/05/12 02:29:23;;;;;;;7.35;6.65;;;15.50;99.90;;;;;;4994680;28;20096;-48
2023/05/12 02:32:09;;;;;;;11.07;7.22;;;15.60;99.90;;;;;;4994776;28;20041;-48
2023/05/12 02:34:55;;;;;;;7.93;6.90;;;15.50;99.90;;;;;;5010499;28;20049;-48
2023/05/12 02:37:41;;;;;;;7.28;6.43;;;15.50;99.90;;;;;;5013050;28;20038;-51
2023/05/12 02:40:27;;;;;;;9.13;7.10;;;15.40;99.90;;;;;;5012924;28;20109;-48
2023/05/12 02:43:13;;;;;;;9.50;6.70;;;15.40;99.90;;;;;;5013475;28;20026;-47
2023/05/12 02:45:59;;;;;;;8.00;7.20;;;15.40;99.90;;;;;;5013105;28;20034;-51
2023/05/12 02:48:45;;;;;;;8.85;6.88;;;15.40;99.90;;;;;;5012588;28;20034;-50
2023/05/12 02:51:30;;;;;;;8.02;7.22;;;15.40;99.90;;;;;;5013468;28;20038;-53
2023/05/12 02:54:16;;;;;;;7.95;6.95;;;15.30;99.90;;;;;;5012304;28;20088;-49
2023/05/12 02:57:05;;;;;;;10.02;7.22;;;15.20;99.90;;;;;;5011826;28;20037;-51
2023/05/12 02:59:51;;;;;;;9.80;6.90;;;15.20;99.90;;;;;;5012850;28;20022;-51
2023/05/12 03:02:38;;;;;;;8.40;6.85;;;15.20;99.90;;;;;;5012896;28;20037;-50
2023/05/12 03:05:24;;;;;;;9.65;7.72;;;15.30;99.90;;;;;;5012253;28;20525;-49
2023/05/12 03:08:10;;;;;;;8.43;7.38;;;15.30;99.90;;;;;;5010940;28;20226;-51
2023/05/12 03:10:56;;;;;;;9.82;7.00;;;15.20;99.90;;;;;;5013134;28;20030;-52
2023/05/12 03:13:42;;;;;;;9.13;7.45;;;15.10;99.90;;;;;;4993279;28;20505;-49
2023/05/12 03:16:28;;;;;;;10.98;7.10;;;15.20;99.90;;;;;;4992744;28;20044;-49
2023/05/12 03:19:14;;;;;;;9.38;7.50;;;15.10;99.90;;;;;;4993803;28;20023;-50
2023/05/12 03:22:02;;;;;;;8.75;7.50;;;15.10;99.90;;;;;;4993838;28;20026;-48
2023/05/12 03:24:47;;;;;;;9.25;7.05;;;15.20;99.90;;;;;;5001781;28;20022;-48
2023/05/12 03:27:33;;;;;;;8.55;7.25;;;15.20;99.90;;;;;;5011949;28;20042;-49
2023/05/12 03:30:19;;;;;;;9.05;7.60;;;15.20;99.90;;;;;;5004454;28;20057;-50
2023/05/12 03:33:05;;;;;;;8.40;7.60;;;15.20;99.90;;;;;;5022579;28;20034;-49
2023/05/12 03:35:52;;;;;;;8.50;7.10;;;15.30;99.90;;;;;;5016939;28;20033;-48
2023/05/12 03:38:37;;;;;;;7.97;7.05;;;15.20;99.90;;;;;;5012951;28;20037;-48
2023/05/12 03:41:23;;;;;;;9.10;7.88;;;15.20;99.90;;;;;;5012548;28;20042;-50
2023/05/12 03:44:11;;;;;;;12.27;7.30;;;15.30;99.90;;;;;;5012257;28;20026;-49
2023/05/12 03:46:56;;;;;;;9.43;7.22;;;15.10;99.90;;;;;;5012723;28;20033;-49
2023/05/12 03:49:42;;;;;;;10.48;8.13;;;15.20;99.90;;;;;;5012268;28;20351;-49
2023/05/12 03:52:28;;;;;;;8.80;7.85;;;15.30;99.90;;;;;;5012790;28;20044;-51
2023/05/12 03:55:14;;;;;;;9.18;7.50;;;15.30;99.90;;;;;;5012683;28;20107;-49
2023/05/12 03:58:00;;;;;;;7.47;6.72;;;15.20;99.90;;;;;;5011644;28;20120;-49
2023/05/12 04:00:48;;;;;;;7.97;7.15;;;15.20;99.90;;;;;;5011097;28;20053;-49
2023/05/12 04:03:34;;;;;;;11.18;9.07;;;15.20;99.90;;;;;;5011937;28;20014;-49
2023/05/12 04:06:20;;;;;;;39.20;27.73;;;15.20;99.90;;;;;;5011742;28;20030;-50
2023/05/12 04:09:06;;;;;;;13.52;8.77;;;15.20;99.90;;;;;;5012825;28;20039;-52
2023/05/12 04:11:52;;;;;;;10.57;7.60;;;15.10;99.90;;;;;;5011777;28;20034;-52
2023/05/12 04:14:38;;;;;;;10.45;7.35;;;15.00;99.90;;;;;;5011543;28;20034;-48
2023/05/12 04:17:24;;;;;;;8.38;7.38;;;15.00;99.90;;;;;;5011392;28;20022;-49
2023/05/12 04:20:10;;;;;;;7.88;6.82;;;15.00;99.90;;;;;;5010736;28;20025;-49
2023/05/12 04:22:56;;;;;;;10.23;7.95;;;15.00;99.90;;;;;;5011919;28;20026;-52
2023/05/12 04:25:42;;;;;;;9.98;7.70;;;15.10;99.90;;;;;;5012830;28;20129;-48
2023/05/12 04:28:28;;;;;;;10.13;7.38;;;15.10;99.90;;;;;;5011754;28;20676;-47
2023/05/12 04:31:14;;;;;;;9.70;6.93;;;15.10;99.90;;;;;;5012539;28;20041;-47
2023/05/12 04:34:00;;;;;;;9.00;7.47;;;15.20;99.80;;;;;;5015627;28;20030;-48
2023/05/12 04:36:46;;;;;;;8.02;7.22;;;15.20;99.70;;;;;;5013820;28;20487;-48
2023/05/12 04:39:32;;;;;;;10.75;7.00;;;15.20;99.50;;;;;;5013699;28;20026;-48
2023/05/12 04:42:18;;;;;;;8.93;7.18;;;15.20;99.50;;;;;;5011765;28;20054;-47
2023/05/12 04:45:04;;;;;;;11.13;6.88;;;15.20;99.50;;;;;;5012258;28;20022;-48
2023/05/12 04:47:50;;;;;;;9.65;7.15;;;15.20;99.40;;;;;;5011443;28;20521;-50
2023/05/12 04:50:36;;;;;;;9.00;7.28;;;15.20;99.40;;;;;;5011617;28;20037;-49
2023/05/12 04:53:22;;;;;;;10.48;7.38;;;15.20;99.40;;;;;;5010948;28;20061;-52
2023/05/12 04:56:08;;;;;;;10.07;7.45;;;15.30;99.40;;;;;;5010454;28;20030;-52
2023/05/12 04:58:54;;;;;;;8.55;7.05;;;15.30;99.50;;;;;;5011328;28;20034;-50
2023/05/12 05:01:41;;;;;;;9.38;7.15;;;15.40;99.10;;;;;;5010913;28;20022;-51
2023/05/12 05:04:27;;;;;;;10.30;7.75;;;15.40;99.00;;;;;;5010821;28;20022;-49
2023/05/12 05:07:13;;;;;;;11.25;7.55;;;15.40;98.90;;;;;;5011122;28;20026;-50
2023/05/12 05:09:59;;;;;;;13.77;8.07;;;15.40;98.90;;;;;;5010885;28;20050;-50
2023/05/12 05:12:45;;;;;;;9.63;8.02;;;15.40;99.00;;;;;;4997410;28;20561;-47
2023/05/12 05:15:31;;;;;;;11.75;7.60;;;15.40;98.70;;;;;;5011373;28;20030;-48
2023/05/12 05:18:17;;;;;;;10.20;8.30;;;15.40;98.70;;;;;;5010872;28;20123;-49
2023/05/12 05:21:03;;;;;;;9.98;7.18;;;15.50;98.90;;;;;;5011296;28;20022;-54
2023/05/12 05:23:49;;;;;;;13.82;8.00;;;15.50;98.90;;;;;;5011608;28;20026;-49
2023/05/12 05:26:36;;;;;;;10.93;8.18;;;15.50;98.90;;;;;;5009927;28;20030;-49
2023/05/12 05:29:22;;;;;;;9.90;8.90;;;15.50;98.70;;;;;;5011233;28;20470;-48
2023/05/12 05:32:08;;;;;;;11.40;8.88;;;15.40;99.00;;;;;;5013998;28;20083;-48
2023/05/12 05:34:54;;;;;;;13.25;10.98;;;15.30;98.90;;;;;;5014074;28;20022;-52
2023/05/12 05:37:40;;;;;;;21.75;13.90;;;15.40;99.00;;;;;;5015102;28;20033;-48
2023/05/12 05:40:26;;;;;;;13.07;9.25;;;15.40;99.00;;;;;;5013915;28;20052;-48
2023/05/12 05:43:12;;;;;;;10.63;8.30;;;15.40;99.00;;;;;;5014279;28;20034;-48
2023/05/12 05:45:58;;;;;;;11.25;8.80;;;15.50;99.10;;;;;;5006059;28;20049;-50
2023/05/12 05:48:44;;;;;;;12.20;8.50;;;15.60;99.20;;;;;;5014420;28;20026;-49
2023/05/12 05:51:30;;;;;;;10.68;8.20;;;15.60;99.10;;;;;;5013664;28;20041;-50
2023/05/12 05:54:16;;;;;;;11.10;8.93;;;15.70;99.10;;;;;;5013451;28;20037;-51
2023/05/12 05:57:02;;;;;;;11.07;9.65;;;15.60;99.00;;;;;;4994160;28;20077;-50
2023/05/12 05:59:48;;;;;;;11.80;8.95;;;15.60;99.30;;;;;;5006354;28;20032;-53
2023/05/12 06:02:35;;;;;;;12.25;8.90;;;15.60;99.40;;;;;;5011731;28;20056;-48
2023/05/12 06:05:21;;;;;;;12.10;9.27;;;15.70;99.20;;;;;;5014496;28;20030;-52
2023/05/12 06:08:09;;;;;;;13.63;9.73;;;15.70;99.10;;;;;;5014252;28;20065;-52
2023/05/12 06:10:55;;;;;;;9.82;8.73;;;15.70;99.00;;;;;;5014264;28;20052;-51
2023/05/12 06:13:41;;;;;;;11.85;9.52;;;15.80;99.20;;;;;;5014112;28;20697;-54
2023/05/12 06:16:28;;;;;;;13.70;10.18;;;15.80;99.00;;;;;;5014165;28;20241;-48
2023/05/12 06:19:14;;;;;;;14.02;10.48;;;15.90;98.80;;;;;;5012625;28;20577;-48
2023/05/12 06:22:00;;;;;;;16.02;9.85;;;15.90;98.70;;;;;;5013653;28;20025;-48
2023/05/12 06:24:46;;;;;;;13.65;10.43;;;15.90;98.80;;;;;;5014832;28;20487;-52
2023/05/12 06:27:32;;;;;;;10.00;8.65;;;15.80;98.50;;;;;;5014523;28;20034;-48
2023/05/12 06:30:18;;;;;;;12.13;9.73;;;15.90;98.60;;;;;;5013496;28;20022;-56
2023/05/12 06:33:04;;;;;;;13.23;9.80;;;16.00;98.50;;;;;;5013204;28;20442;-52
2023/05/12 06:35:50;;;;;;;11.77;9.80;;;16.10;98.30;;;;;;5016041;28;20056;-48
2023/05/12 06:38:36;;;;;;;10.18;9.18;;;16.10;98.00;;;;;;5013977;28;20041;-48
2023/05/12 06:41:23;;;;;;;10.02;9.02;;;16.30;98.00;;;;;;5013871;28;20026;-52
2023/05/12 06:44:11;;;;;;;10.20;9.18;;;16.40;97.90;;;;;;5013415;28;20026;-49
2023/05/12 06:46:57;;;;;;;12.73;9.73;;;16.50;97.90;;;;;;5013514;28;20118;-50
2023/05/12 06:49:43;;;;;;;11.23;9.50;;;16.60;97.40;;;;;;5013204;28;20075;-48
2023/05/12 06:52:30;;;;;;;11.65;9.60;;;16.60;97.70;;;;;;5013005;28;20036;-48
2023/05/12 06:55:18;;;;;;;14.32;11.10;;;16.60;97.60;;;;;;5013345;28;20029;-50
2023/05/12 06:58:04;;;;;;;11.68;9.85;;;16.70;97.60;;;;;;5013211;28;20037;-48
2023/05/12 07:00:50;;;;;;;17.08;10.20;;;16.90;97.80;;;;;;5013107;28;20116;-50
2023/05/12 07:03:36;;;;;;;12.23;10.13;;;16.90;97.30;;;;;;5013546;28;20112;-49
2023/05/12 07:06:23;;;;;;;17.48;10.10;;;17.00;97.20;;;;;;5011306;28;20022;-49
2023/05/12 07:09:09;;;;;;;12.73;9.70;;;17.00;97.10;;;;;;5013189;28;20037;-49
2023/05/12 07:11:54;;;;;;;12.90;9.93;;;17.00;97.40;;;;;;5014581;28;20034;-48
2023/05/12 07:14:40;;;;;;;13.30;10.95;;;16.90;97.40;;;;;;5017833;28;20113;-50
2023/05/12 07:17:27;;;;;;;11.75;10.50;;;17.10;97.60;;;;;;5015207;28;20026;-51
2023/05/12 07:20:16;;;;;;;12.43;9.65;;;17.20;97.80;;;;;;5014431;28;20172;-53
2023/05/12 07:23:03;;;;;;;14.27;10.80;;;17.40;97.60;;;;;;5010306;28;20025;-48
2023/05/12 07:25:49;;;;;;;13.63;10.27;;;17.60;98.00;;;;;;5004333;28;20553;-49
2023/05/12 07:28:36;;;;;;;12.52;10.20;;;17.80;96.90;;;;;;5002787;28;20026;-50
2023/05/12 07:31:22;;;;;;;15.20;9.85;;;18.00;97.20;;;;;;5010291;28;20704;-49
2023/05/12 07:34:08;;;;;;;12.98;9.40;;;18.20;96.80;;;;;;5005291;28;20045;-48
2023/05/12 07:36:54;;;;;;;15.70;9.90;;;18.40;96.30;;;;;;4998100;28;20069;-49
2023/05/12 07:39:40;;;;;;;9.43;8.10;;;18.50;95.80;;;;;;4992616;28;20699;-50
2023/05/12 07:42:26;;;;;;;9.20;8.07;;;18.40;93.90;;;;;;4998543;28;20089;-48
2023/05/12 07:45:12;;;;;;;10.43;8.15;;;18.30;93.50;;;;;;5003045;28;20092;-48
2023/05/12 07:47:58;;;;;;;17.10;8.70;;;18.30;93.60;;;;;;5008738;28;20030;-49
2023/05/12 07:50:44;;;;;;;13.38;8.23;;;18.30;93.20;;;;;;5005857;28;20026;-49
2023/05/12 07:53:30;;;;;;;10.30;7.80;;;18.30;93.30;;;;;;5000142;28;20022;-49
2023/05/12 07:56:16;;;;;;;9.40;7.65;;;18.40;92.20;;;;;;4997420;28;20037;-50
2023/05/12 07:59:02;;;;;;;8.65;7.55;;;18.50;92.30;;;;;;5014876;28;20552;-49
2023/05/12 08:01:48;;;;;;;9.27;7.03;;;18.60;91.60;;;;;;5012121;28;20038;-51
2023/05/12 08:04:34;;;;;;;11.18;7.18;;;18.70;91.70;;;;;;5011606;28;20041;-51
2023/05/12 08:07:20;;;;;;;8.07;6.93;;;18.90;91.90;;;;;;4992561;28;20037;-48
2023/05/12 08:10:07;;;;;;;9.70;7.75;;;19.00;91.70;;;;;;4991604;28;20038;-49
2023/05/12 08:12:55;;;;;;;9.88;7.70;;;19.20;91.90;;;;;;4991696;28;20084;-53
2023/05/12 08:15:41;;;;;;;8.27;7.45;;;19.20;91.40;;;;;;5010035;28;20038;-51
2023/05/12 08:18:27;;;;;;;10.25;7.35;;;19.10;91.60;;;;;;5011168;28;20034;-50
2023/05/12 08:21:13;;;;;;;9.07;7.43;;;19.20;91.30;;;;;;5009726;28;20069;-48
2023/05/12 08:23:59;;;;;;;9.02;7.55;;;19.30;91.50;;;;;;5009770;28;20077;-51
2023/05/12 08:26:45;;;;;;;12.50;8.18;;;19.20;91.20;;;;;;5010273;28;20089;-52
2023/05/12 08:29:31;;;;;;;9.45;7.72;;;19.30;91.10;;;;;;4995669;28;20124;-49
2023/05/12 08:32:17;;;;;;;9.70;7.18;;;19.30;90.80;;;;;;5010272;28;20076;-52
2023/05/12 08:35:03;;;;;;;9.98;7.45;;;19.40;91.00;;;;;;5010426;28;20041;-53
2023/05/12 08:37:49;;;;;;;9.27;7.30;;;19.40;90.90;;;;;;4989514;28;20483;-51
2023/05/12 08:40:46;;;;;;;8.73;6.90;;;19.60;91.00;;;;;;4991166;28;20446;-50
2023/05/12 08:43:43;;;;;;;9.07;7.10;;;19.80;90.60;;;;;;5004961;28;20032;-51
2023/05/12 08:46:33;;;;;;;10.10;7.47;;;19.90;88.60;;;;;;4999604;28;20468;-51
2023/05/12 08:49:21;;;;;;;9.43;7.47;;;19.80;87.80;;;;;;5009097;28;20080;-52
2023/05/12 08:52:08;;;;;;;10.35;7.22;;;19.80;88.50;;;;;;5010259;28;20034;-51
2023/05/12 08:54:55;;;;;;;9.15;7.53;;;19.90;88.80;;;;;;5010795;28;20030;-55
2023/05/12 08:57:44;;;;;;;8.68;6.80;;;20.00;88.40;;;;;;5006602;28;20414;-51
2023/05/12 09:00:33;;;;;;;10.57;7.15;;;20.20;87.90;;;;;;5009380;28;20065;-55
2023/05/12 09:03:20;;;;;;;9.05;6.80;;;20.40;87.30;;;;;;5008636;28;20041;-52
2023/05/12 09:06:07;;;;;;;10.82;6.68;;;20.30;86.70;;;;;;5014542;28;20033;-54
2023/05/12 09:08:54;;;;;;;12.20;6.15;;;20.30;86.40;;;;;;5019298;28;20034;-54
2023/05/12 09:11:41;;;;;;;7.97;6.50;;;20.20;87.30;;;;;;5016400;28;20034;-53
2023/05/12 09:14:33;;;;;;;8.13;6.82;;;20.40;86.90;;;;;;5018393;28;20033;-55
2023/05/12 09:17:19;;;;;;;8.10;6.95;;;20.60;86.50;;;;;;5014032;28;20533;-51
2023/05/12 09:20:06;;;;;;;9.40;6.20;;;20.80;85.80;;;;;;4994464;28;20030;-52
2023/05/12 09:22:55;;;;;;;7.20;5.93;;;20.90;85.30;;;;;;5009645;28;20474;-52
2023/05/12 09:25:41;;;;;;;8.52;6.68;;;20.90;85.40;;;;;;5013277;28;20076;-54
2023/05/12 09:28:39;;;;;;;8.07;6.93;;;21.00;83.70;;;;;;5011325;28;20510;-51
2023/05/12 09:31:26;;;;;;;7.10;6.30;;;21.10;82.80;;;;;;5013209;28;20041;-53
2023/05/12 09:34:11;;;;;;;10.82;7.18;;;21.10;83.30;;;;;;5014533;28;20030;-53
2023/05/12 09:37:03;;;;;;;9.25;6.47;;;21.10;82.50;;;;;;4992643;28;20503;-50
2023/05/12 09:39:59;;;;;;;7.20;6.47;;;21.00;82.10;;;;;;4993625;28;20030;-54
2023/05/12 09:42:45;;;;;;;11.88;7.25;;;21.10;82.00;;;;;;5014663;28;20026;-52
2023/05/12 09:45:35;;;;;;;9.90;6.75;;;21.20;81.30;;;;;;5013618;28;20084;-52
2023/05/12 09:48:21;;;;;;;7.85;6.47;;;21.20;80.80;;;;;;5011194;28;20037;-53
2023/05/12 09:51:09;;;;;;;8.18;6.45;;;21.20;80.10;;;;;;5011714;28;20117;-51
2023/05/12 09:53:56;;;;;;;8.35;6.57;;;21.10;80.80;;;;;;4993821;28;20027;-52
2023/05/12 09:56:42;;;;;;;8.90;6.60;;;21.20;80.80;;;;;;5001694;28;20026;-50
2023/05/12 09:59:33;;;;;;;8.50;6.32;;;21.30;81.10;;;;;;5012179;28;20034;-52
2023/05/12 10:02:19;;;;;;;8.23;6.47;;;21.60;82.10;;;;;;5012090;28;20106;-51
2023/05/12 10:05:07;;;;;;;9.38;6.40;;;21.50;80.20;;;;;;5008025;28;20038;-51
2023/05/12 10:07:59;;;;;;;8.25;6.60;;;21.50;81.30;;;;;;5007784;28;20028;-51
2023/05/12 10:10:47;;;;;;;10.73;6.50;;;21.60;81.20;;;;;;5012428;28;20033;-48
2023/05/12 10:13:34;;;;;;;6.55;5.55;;;21.60;81.00;;;;;;5007363;28;20027;-49
2023/05/12 10:16:21;;;;;;;8.10;5.78;;;21.70;80.50;;;;;;5010635;28;20030;-49
2023/05/12 10:19:09;;;;;;;8.80;5.70;;;21.90;79.10;;;;;;5013208;28;20076;-51
2023/05/12 10:21:56;;;;;;;6.10;5.47;;;22.10;79.00;;;;;;5009668;28;20026;-60
2023/05/12 10:24:44;;;;;;;8.25;5.47;;;22.10;78.50;;;;;;5012735;28;20049;-51
2023/05/12 10:27:32;;;;;;;8.88;6.28;;;22.10;78.00;;;;;;5013098;28;20022;-51
2023/05/12 10:30:18;;;;;;;9.05;6.13;;;22.20;78.20;;;;;;5013073;28;20095;-47
2023/05/12 10:33:08;;;;;;;6.97;5.47;;;22.10;76.50;;;;;;5012926;28;20052;-47
2023/05/12 10:35:54;;;;;;;6.90;5.53;;;22.20;76.80;;;;;;5013431;28;20117;-48
2023/05/12 10:38:40;;;;;;;7.13;5.68;;;22.30;75.10;;;;;;5013170;28;20041;-48
2023/05/12 10:41:31;;;;;;;9.68;5.40;;;22.30;76.30;;;;;;5013585;28;20088;-49
2023/05/12 10:44:26;;;;;;;7.32;5.65;;;22.30;76.00;;;;;;5013536;28;20126;-49
2023/05/12 10:47:15;;;;;;;7.00;5.30;;;22.20;72.80;;;;;;5012170;28;20034;-50
2023/05/12 10:50:01;;;;;;;6.85;5.93;;;22.20;73.70;;;;;;5012724;28;20044;-47
2023/05/12 10:52:54;;;;;;;8.00;6.82;;;22.20;73.80;;;;;;5012214;28;20034;-52
2023/05/12 10:55:46;;;;;;;7.82;6.00;;;22.10;74.70;;;;;;5012252;28;20122;-52
2023/05/12 10:58:32;;;;;;;6.00;5.40;;;22.00;76.30;;;;;;4991910;28;20038;-49
2023/05/12 11:01:23;;;;;;;9.55;5.72;;;22.00;72.40;;;;;;4998517;28;20030;-47
2023/05/12 11:04:15;;;;;;;7.47;5.32;;;21.90;73.10;;;;;;5012773;28;20037;-51
2023/05/12 11:07:03;;;;;;;9.20;6.05;;;22.10;73.40;;;;;;5013084;28;20034;-46
2023/05/12 11:09:49;;;;;;;6.93;5.95;;;22.30;75.20;;;;;;5011271;28;20064;-47
2023/05/12 11:12:36;;;;;;;7.90;6.07;;;22.50;74.90;;;;;;5010956;28;20491;-49
2023/05/12 11:15:22;;;;;;;11.82;6.43;;;22.60;74.70;;;;;;5007268;28;20156;-49
2023/05/12 11:18:08;;;;;;;10.63;6.10;;;22.50;74.00;;;;;;5010958;28;20034;-51
2023/05/12 11:20:54;;;;;;;8.00;6.70;;;22.40;74.60;;;;;;5013060;28;20033;-50
2023/05/12 11:23:40;;;;;;;10.13;6.38;;;22.50;73.20;;;;;;5011478;28;20479;-58
2023/05/12 11:26:27;;;;;;;8.43;5.93;;;22.40;74.10;;;;;;5010537;28;20038;-48
2023/05/12 11:29:13;;;;;;;9.70;6.55;;;22.10;73.80;;;;;;5012920;28;20030;-50
2023/05/12 11:31:59;;;;;;;8.30;6.03;;;22.20;75.20;;;;;;5011568;28;20069;-49
2023/05/12 11:34:46;;;;;;;8.20;5.40;;;22.30;73.90;;;;;;5006379;28;20510;-53
2023/05/12 11:37:37;;;;;;;9.23;5.80;;;22.50;73.20;;;;;;4990779;28;20029;-51
2023/05/12 11:40:23;;;;;;;9.15;5.68;;;22.70;73.30;;;;;;4999386;28;20273;-49
2023/05/12 11:43:10;;;;;;;8.38;5.75;;;22.60;73.00;;;;;;5010336;28;20026;-49
2023/05/12 11:45:56;;;;;;;6.63;5.30;;;22.90;73.20;;;;;;5012261;28;20037;-53
2023/05/12 11:48:42;;;;;;;15.32;12.20;;;23.10;72.30;;;;;;4991374;28;20026;-50
2023/05/12 11:51:28;;;;;;;6.43;5.70;;;22.90;67.40;;;;;;5003173;28;20402;-54
2023/05/12 11:54:15;;;;;;;8.80;5.75;;;22.70;68.90;;;;;;5013602;28;20497;-49
2023/05/12 11:57:02;;;;;;;9.38;5.88;;;22.60;68.40;;;;;;5010818;28;20030;-53
2023/05/12 11:59:59;;;;;;;7.78;5.38;;;22.50;69.00;;;;;;5008761;28;20037;-48
2023/05/12 12:02:45;;;;;;;6.88;5.18;;;22.40;70.30;;;;;;5012511;28;20093;-53
2023/05/12 12:05:31;;;;;;;6.22;5.28;;;22.60;70.20;;;;;;5011386;28;20036;-52
2023/05/12 12:08:17;;;;;;;6.43;5.47;;;22.70;66.40;;;;;;5010982;28;20108;-52
2023/05/12 12:11:03;;;;;;;7.55;5.13;;;22.80;66.20;;;;;;5010376;28;20033;-52
2023/05/12 12:13:55;;;;;;;11.45;6.78;;;22.70;67.10;;;;;;5011005;28;20034;-51
2023/05/12 12:16:41;;;;;;;7.95;5.38;;;23.10;67.20;;;;;;5009645;28;20041;-54
2023/05/12 12:19:27;;;;;;;7.63;5.72;;;23.40;66.70;;;;;;5009464;28;20053;-54
2023/05/12 12:22:13;;;;;;;6.20;5.05;;;23.60;66.70;;;;;;5008147;28;20018;-53
2023/05/12 12:25:00;;;;;;;6.50;4.85;;;23.80;67.10;;;;;;5006612;28;20034;-54
2023/05/12 12:27:47;;;;;;;8.02;4.70;;;23.80;63.40;;;;;;5008913;28;20128;-50
2023/05/12 12:30:33;;;;;;;5.22;4.72;;;24.10;63.20;;;;;;5003265;28;20604;-49
2023/05/12 12:33:24;;;;;;;7.80;5.38;;;24.10;62.60;;;;;;5010547;28;20565;-51
2023/05/12 12:36:10;;;;;;;6.25;5.20;;;23.90;61.40;;;;;;5010292;28;20065;-53
2023/05/12 12:38:56;;;;;;;10.55;5.32;;;23.90;62.50;;;;;;5010341;28;20034;-49
2023/05/12 12:41:42;;;;;;;20.67;18.58;;;24.00;60.70;;;;;;5016960;28;20037;-52
2023/05/12 12:44:28;;;;;;;15.68;14.07;;;24.00;60.10;;;;;;5017307;28;20049;-54
2023/05/12 12:47:15;;;;;;;7.57;4.40;;;24.30;59.40;;;;;;5016990;28;20085;-51
2023/05/12 12:50:00;;;;;;;5.47;4.97;;;24.40;58.80;;;;;;5017072;28;20557;-54
2023/05/12 12:52:47;;;;;;;6.72;5.32;;;24.40;60.30;;;;;;5017715;28;20403;-49
2023/05/12 12:55:34;;;;;;;8.77;4.95;;;24.40;61.60;;;;;;5017911;28;20109;-55
2023/05/12 12:58:20;;;;;;;5.63;5.00;;;24.40;61.30;;;;;;5017098;28;20044;-54
2023/05/12 13:01:06;;;;;;;10.43;5.22;;;24.30;60.10;;;;;;5019353;28;20521;-54
2023/05/12 13:03:52;;;;;;;8.00;5.40;;;24.40;60.70;;;;;;5018528;28;20379;-51
2023/05/12 13:06:38;;;;;;;5.78;5.20;;;24.50;61.10;;;;;;5016613;28;20087;-49
2023/05/12 13:09:24;;;;;;;8.88;5.20;;;24.50;60.90;;;;;;5017066;28;20121;-52
2023/05/12 13:12:10;;;;;;;10.27;4.97;;;24.30;59.90;;;;;;5017006;28;20033;-51
2023/05/12 13:14:58;;;;;;;9.85;7.30;;;24.40;58.80;;;;;;5017232;28;20030;-51
2023/05/12 13:17:47;;;;;;;8.70;5.30;;;24.20;59.90;;;;;;5016321;28;20045;-49
2023/05/12 13:20:33;;;;;;;8.32;5.03;;;23.80;60.50;;;;;;5016939;28;20033;-49
2023/05/12 13:23:20;;;;;;;12.60;8.30;;;23.80;59.90;;;;;;5017111;28;20022;-52
2023/05/12 13:26:06;;;;;;;9.20;7.38;;;24.10;61.50;;;;;;5017273;28;20061;-52
2023/05/12 13:28:52;;;;;;;10.77;7.80;;;24.40;60.70;;;;;;5017065;28;20026;-51
2023/05/12 13:31:40;;;;;;;9.93;8.18;;;24.50;58.30;;;;;;5017283;28;20144;-50
2023/05/12 13:34:26;;;;;;;9.38;5.90;;;24.50;59.30;;;;;;5002814;28;20109;-53
2023/05/12 13:37:12;;;;;;;6.32;5.53;;;24.60;59.00;;;;;;5015603;28;20034;-50
2023/05/12 13:39:58;;;;;;;4.88;4.32;;;25.10;59.10;;;;;;5016496;28;20108;-50
2023/05/12 13:42:43;;;;;;;6.25;5.03;;;25.10;58.30;;;;;;5016748;28;20026;-54
2023/05/12 13:45:29;;;;;;;8.75;5.40;;;25.10;57.50;;;;;;5016647;28;20038;-47
2023/05/12 13:48:15;;;;;;;6.38;5.10;;;25.00;57.70;;;;;;5016234;28;20036;-50
2023/05/12 13:51:01;;;;;;;8.80;5.32;;;24.50;57.20;;;;;;5014837;28;20041;-48
2023/05/12 13:53:54;;;;;;;7.57;5.45;;;23.90;58.30;;;;;;5013166;28;20109;-49
2023/05/12 13:56:41;;;;;;;8.85;5.38;;;23.90;58.90;;;;;;5013359;28;20061;-52
2023/05/12 13:59:29;;;;;;;8.18;5.63;;;23.70;58.90;;;;;;5012999;28;20034;-50
2023/05/12 14:02:15;;;;;;;7.07;5.20;;;23.60;59.70;;;;;;5013432;28;20442;-51
2023/05/12 14:05:01;;;;;;;8.00;5.72;;;23.60;59.50;;;;;;5013579;28;20022;-48
2023/05/12 14:07:47;;;;;;;7.13;5.05;;;23.50;59.50;;;;;;5011708;28;20030;-55
2023/05/12 14:10:34;;;;;;;6.55;5.25;;;23.40;59.50;;;;;;5012207;28;20038;-55
2023/05/12 14:13:20;;;;;;;6.40;5.30;;;23.30;60.20;;;;;;5013328;28;20568;-47
2023/05/12 14:16:06;;;;;;;8.02;4.97;;;23.40;60.40;;;;;;5012724;28;20446;-50
2023/05/12 14:18:54;;;;;;;5.70;5.18;;;23.40;60.70;;;;;;5013061;28;20461;-50
2023/05/12 14:21:40;;;;;;;7.32;5.65;;;23.60;60.40;;;;;;5013495;28;20500;-51
2023/05/12 14:24:27;;;;;;;9.15;5.20;;;24.10;59.60;;;;;;5012961;28;20026;-49